createdAt,value
2023-02-09T00:00:10.939Z,102409.59
2023-02-09T00:02:38.800Z,102415.00
2023-02-09T00:05:07.925Z,102416.84
2023-02-09T00:07:36.995Z,102414.28
2023-02-09T00:10:04.733Z,102415.13
2023-02-09T00:12:49.613Z,102424.22
2023-02-09T00:15:17.244Z,102417.16
2023-02-09T00:17:45.450Z,102416.28
2023-02-09T00:20:13.232Z,102407.34
2023-02-09T00:22:42.242Z,102409.22
2023-02-09T00:25:09.885Z,102403.81
2023-02-09T00:27:37.548Z,102401.31
2023-02-09T00:30:05.514Z,102394.72
2023-02-09T00:32:33.287Z,102395.59
2023-02-09T00:35:00.989Z,102390.22
2023-02-09T00:37:28.676Z,102385.50
2023-02-09T00:39:57.754Z,102388.19
2023-02-09T00:42:25.465Z,102385.34
2023-02-09T00:44:53.136Z,102390.88
2023-02-09T00:47:20.877Z,102389.91
2023-02-09T00:49:48.494Z,102389.91
2023-02-09T00:52:16.164Z,102383.50
2023-02-09T00:54:43.838Z,102384.50
2023-02-09T00:57:12.969Z,102386.19
2023-02-09T00:59:42.501Z,102375.41
2023-02-09T01:02:10.267Z,102376.41
2023-02-09T01:04:38.845Z,102372.00
2023-02-09T01:07:06.626Z,102375.72
2023-02-09T01:09:34.373Z,102377.72
2023-02-09T01:12:02.033Z,102365.56
2023-02-09T01:14:31.122Z,102366.94
2023-02-09T01:16:58.831Z,102371.66
2023-02-09T01:19:26.889Z,102363.59
2023-02-09T01:21:54.562Z,102364.41
2023-02-09T01:24:22.186Z,102352.81
2023-02-09T01:26:49.974Z,102362.72
2023-02-09T01:29:18.071Z,102357.50
2023-02-09T01:31:47.424Z,102361.88
2023-02-09T01:34:15.730Z,102359.34
2023-02-09T01:36:43.527Z,102359.34
2023-02-09T01:39:11.636Z,102352.09
2023-02-09T01:41:39.451Z,102346.72
2023-02-09T01:44:07.480Z,102349.41
2023-02-09T01:46:35.555Z,102346.72
2023-02-09T01:49:05.773Z,102347.69
2023-02-09T01:51:34.267Z,102342.31
2023-02-09T01:54:02.115Z,102338.91
2023-02-09T01:56:30.446Z,102328.97
2023-02-09T01:58:58.102Z,102329.81
2023-02-09T02:01:25.933Z,102326.16
2023-02-09T02:03:54.109Z,102318.75
2023-02-09T02:06:23.256Z,102308.81
2023-02-09T02:08:52.617Z,102304.31
2023-02-09T02:11:20.296Z,102300.75
2023-02-09T02:13:48.058Z,102309.69
2023-02-09T02:16:39.840Z,102307.66
2023-02-09T02:19:18.161Z,102303.44
2023-02-09T02:22:09.660Z,102298.03
2023-02-09T02:24:46.750Z,102290.97
2023-02-09T02:27:15.511Z,102279.34
2023-02-09T02:30:04.665Z,102285.59
2023-02-09T02:32:35.660Z,102284.75
2023-02-09T02:35:04.563Z,102276.66
2023-02-09T02:37:35.505Z,102279.34
2023-02-09T02:40:05.008Z,102273.97
2023-02-09T02:42:51.992Z,102276.66
2023-02-09T02:45:30.491Z,102272.25
2023-02-09T02:48:00.154Z,102278.53
2023-02-09T02:50:28.449Z,102280.19
2023-02-09T02:52:56.601Z,102273.97
2023-02-09T02:55:25.578Z,102269.56
2023-02-09T02:57:53.305Z,102272.25
2023-02-09T03:00:21.609Z,102268.59
2023-02-09T03:02:50.092Z,102269.56
2023-02-09T03:05:19.310Z,102267.75
2023-02-09T03:07:47.022Z,102262.34
2023-02-09T03:10:25.227Z,102264.88
2023-02-09T03:12:53.594Z,102254.94
2023-02-09T03:15:23.580Z,102251.41
2023-02-09T03:17:52.727Z,102253.25
2023-02-09T03:20:24.780Z,102263.88
2023-02-09T03:22:56.360Z,102257.47
2023-02-09T03:25:25.225Z,102251.25
2023-02-09T03:27:54.717Z,102255.81
2023-02-09T03:30:22.466Z,102242.16
2023-02-09T03:32:50.179Z,102235.09
2023-02-09T03:35:18.769Z,102236.06
2023-02-09T03:37:47.866Z,102242.34
2023-02-09T03:40:15.491Z,102238.78
2023-02-09T03:42:43.156Z,102246.00
2023-02-09T03:45:11.021Z,102244.34
2023-02-09T03:47:38.659Z,102243.50
2023-02-09T03:50:07.548Z,102240.81
2023-02-09T03:52:35.249Z,102237.94
2023-02-09T03:55:05.337Z,102245.31
2023-02-09T03:57:33.042Z,102241.63
2023-02-09T04:00:01.794Z,102231.84
2023-02-09T04:02:30.419Z,102239.94
2023-02-09T04:04:58.170Z,102239.06
2023-02-09T04:07:25.989Z,102239.94
2023-02-09T04:09:53.753Z,102249.84
2023-02-09T04:12:22.762Z,102245.31
2023-02-09T04:14:50.493Z,102246.31
2023-02-09T04:17:18.156Z,102239.94
2023-02-09T04:19:45.796Z,102237.22
2023-02-09T04:22:13.452Z,102242.63
2023-02-09T04:24:41.120Z,102238.09
2023-02-09T04:27:08.843Z,102242.63
2023-02-09T04:29:37.909Z,102237.09
2023-02-09T04:32:05.858Z,102241.63
2023-02-09T04:34:33.565Z,102247.03
2023-02-09T04:37:01.285Z,102239.94
2023-02-09T04:39:28.997Z,102247.03
2023-02-09T04:41:56.694Z,102232.00
2023-02-09T04:44:24.297Z,102235.53
2023-02-09T04:46:53.410Z,102236.53
2023-02-09T04:49:21.167Z,102238.22
2023-02-09T04:51:48.816Z,102236.53
2023-02-09T04:54:16.527Z,102235.84
2023-02-09T04:56:44.326Z,102234.00
2023-02-09T04:59:29.469Z,102242.91
2023-02-09T05:01:58.623Z,102242.91
2023-02-09T05:04:26.319Z,102254.72
2023-02-09T05:06:54.091Z,102260.94
2023-02-09T05:09:21.848Z,102255.53
2023-02-09T05:11:49.493Z,102265.47
2023-02-09T05:14:17.161Z,102270.88
2023-02-09T05:16:45.321Z,102277.94
2023-02-09T05:19:14.398Z,102272.53
2023-02-09T05:21:42.095Z,102273.56
2023-02-09T05:24:09.766Z,102275.41
2023-02-09T05:26:37.439Z,102275.41
2023-02-09T05:29:05.143Z,102271.72
2023-02-09T05:31:33.002Z,102277.94
2023-02-09T05:34:01.747Z,102285.19
2023-02-09T05:36:30.881Z,102283.31
2023-02-09T05:38:58.580Z,102285.19
2023-02-09T05:41:43.622Z,102286.03
2023-02-09T05:44:11.348Z,102292.41
2023-02-09T05:46:39.109Z,102289.72
2023-02-09T05:49:06.820Z,102289.72
2023-02-09T05:51:35.866Z,102286.03
2023-02-09T05:54:03.577Z,102296.09
2023-02-09T05:56:31.263Z,102303.19
2023-02-09T05:58:59.018Z,102296.09
2023-02-09T06:01:26.672Z,102305.91
2023-02-09T06:03:54.414Z,102303.19
2023-02-09T06:06:22.081Z,102312.13
2023-02-09T06:08:51.191Z,102312.25
2023-02-09T06:11:19.376Z,102311.28
2023-02-09T06:13:47.127Z,102305.72
2023-02-09T06:16:14.862Z,102310.28
2023-02-09T06:18:42.566Z,102314.66
2023-02-09T06:21:11.617Z,102311.97
2023-02-09T06:23:39.313Z,102311.97
2023-02-09T06:26:09.238Z,102313.66
2023-02-09T06:28:36.963Z,102309.97
2023-02-09T06:31:05.467Z,102311.69
2023-02-09T06:33:33.195Z,102313.38
2023-02-09T06:36:01.170Z,102315.09
2023-02-09T06:38:28.802Z,102315.91
2023-02-09T06:40:56.518Z,102307.66
2023-02-09T06:43:25.626Z,102309.38
2023-02-09T06:45:53.273Z,102304.66
2023-02-09T06:48:21.233Z,102310.03
2023-02-09T06:50:49.087Z,102311.75
2023-02-09T06:53:17.233Z,102308.88
2023-02-09T06:55:44.921Z,102314.13
2023-02-09T06:58:12.676Z,102310.41
2023-02-09T07:00:41.829Z,102300.50
2023-02-09T07:03:09.521Z,102302.19
2023-02-09T07:05:37.282Z,102308.41
2023-02-09T07:08:04.969Z,102310.13
2023-02-09T07:10:32.626Z,102303.72
2023-02-09T07:13:00.249Z,102311.81
2023-02-09T07:15:27.926Z,102308.09
2023-02-09T07:17:57.036Z,102314.19
2023-02-09T07:20:24.825Z,102309.47
2023-02-09T07:22:52.611Z,102316.41
2023-02-09T07:25:20.362Z,102316.22
2023-02-09T07:27:48.223Z,102315.25
2023-02-09T07:30:16.677Z,102321.31
2023-02-09T07:32:44.380Z,102314.78
2023-02-09T07:35:13.463Z,102326.41
2023-02-09T07:37:41.122Z,102313.59
2023-02-09T07:40:09.526Z,102304.50
2023-02-09T07:42:37.296Z,102313.28
2023-02-09T07:45:05.103Z,102309.41
2023-02-09T07:47:32.892Z,102314.50
2023-02-09T07:50:00.583Z,102307.94
2023-02-09T07:52:29.640Z,102313.00
2023-02-09T07:54:57.337Z,102309.13
2023-02-09T07:57:25.042Z,102310.66
2023-02-09T07:59:53.346Z,102295.31
2023-02-09T08:02:25.676Z,102303.94
2023-02-09T08:04:53.680Z,102307.31
2023-02-09T08:07:21.423Z,102302.09
2023-02-09T08:09:51.061Z,102305.63
2023-02-09T08:12:19.062Z,102291.97
2023-02-09T08:14:48.399Z,102299.09
2023-02-09T08:17:26.166Z,102291.81
2023-02-09T08:19:54.511Z,102297.06
2023-02-09T08:22:22.678Z,102302.97
2023-02-09T08:24:51.732Z,102305.50
2023-02-09T08:27:19.402Z,102309.72
2023-02-09T08:29:48.940Z,102304.03
2023-02-09T08:32:16.868Z,102303.84
2023-02-09T08:34:44.631Z,102304.53
2023-02-09T08:37:12.961Z,102301.69
2023-02-09T08:39:40.686Z,102302.38
2023-02-09T08:42:09.772Z,102305.78
2023-02-09T08:44:38.073Z,102315.53
2023-02-09T08:47:06.002Z,102306.13
2023-02-09T08:49:34.348Z,102306.13
2023-02-09T08:52:02.070Z,102316.59
2023-02-09T08:54:30.897Z,102315.41
2023-02-09T08:56:58.676Z,102306.00
2023-02-09T08:59:28.649Z,102297.72
2023-02-09T09:01:56.453Z,102297.25
2023-02-09T09:04:24.874Z,102322.38
2023-02-09T09:06:53.236Z,102306.03
2023-02-09T09:09:20.933Z,102299.59
2023-02-09T09:11:50.240Z,102314.63
2023-02-09T09:14:17.901Z,102304.19
2023-02-09T09:16:47.033Z,102305.38
2023-02-09T09:19:16.138Z,102305.91
2023-02-09T09:21:43.851Z,102311.13
2023-02-09T09:24:11.521Z,102313.81
2023-02-09T09:26:39.775Z,102320.06
2023-02-09T09:29:07.455Z,102319.72
2023-02-09T09:31:35.920Z,102306.56
2023-02-09T09:34:05.104Z,102308.97
2023-02-09T09:36:32.839Z,102307.25
2023-02-09T09:39:01.118Z,102303.22
2023-02-09T09:41:30.095Z,102303.94
2023-02-09T09:43:58.402Z,102299.88
2023-02-09T09:46:27.929Z,102305.47
2023-02-09T09:48:56.889Z,102302.78
2023-02-09T09:51:28.803Z,102298.56
2023-02-09T09:53:57.130Z,102292.44
2023-02-09T09:56:27.076Z,102291.59
2023-02-09T09:58:55.635Z,102280.63
2023-02-09T10:01:23.437Z,102286.03
2023-02-09T10:03:51.900Z,102280.47
2023-02-09T10:06:21.814Z,102276.59
2023-02-09T10:08:53.667Z,102272.72
2023-02-09T10:11:21.800Z,102277.94
2023-02-09T10:13:50.036Z,102275.06
2023-02-09T10:16:19.245Z,102264.25
2023-02-09T10:18:47.052Z,102274.91
2023-02-09T10:21:16.168Z,102272.22
2023-02-09T10:23:44.892Z,102272.88
2023-02-09T10:26:24.788Z,102265.63
2023-02-09T10:28:52.984Z,102257.34
2023-02-09T10:31:24.245Z,102259.88
2023-02-09T10:33:53.533Z,102252.63
2023-02-09T10:36:28.733Z,102240.78
2023-02-09T10:39:04.252Z,102239.78
2023-02-09T10:41:34.515Z,102235.03
2023-02-09T10:44:02.998Z,102242.97
2023-02-09T10:46:30.691Z,102229.31
2023-02-09T10:48:59.077Z,102239.94
2023-02-09T10:51:29.329Z,102240.75
2023-02-09T10:54:02.314Z,102235.19
2023-02-09T10:56:30.385Z,102229.81
2023-02-09T10:59:02.311Z,102233.19
2023-02-09T11:01:30.262Z,102226.75
2023-02-09T11:04:01.121Z,102221.19
2023-02-09T11:06:29.580Z,102213.72
2023-02-09T11:08:58.097Z,102215.44
2023-02-09T11:11:33.173Z,102210.84
2023-02-09T11:14:02.269Z,102206.13
2023-02-09T11:16:46.341Z,102201.56
2023-02-09T11:19:16.221Z,102200.53
2023-02-09T11:21:48.121Z,102192.28
2023-02-09T11:24:17.523Z,102205.63
2023-02-09T11:26:49.289Z,102195.66
2023-02-09T11:29:19.895Z,102196.47
2023-02-09T11:32:03.288Z,102194.47
2023-02-09T11:34:43.855Z,102195.47
2023-02-09T11:37:18.322Z,102192.75
2023-02-09T11:39:47.308Z,102184.50
2023-02-09T11:42:36.147Z,102190.72
2023-02-09T11:45:08.595Z,102177.41
2023-02-09T11:47:41.125Z,102178.41
2023-02-09T11:50:09.436Z,102181.94
2023-02-09T11:52:37.739Z,102172.00
2023-02-09T11:55:10.310Z,102178.25
2023-02-09T11:57:40.650Z,102180.94
2023-02-09T12:00:12.176Z,102171.13
2023-02-09T12:02:42.110Z,102164.88
2023-02-09T12:05:13.309Z,102158.81
2023-02-09T12:07:42.286Z,102153.59
2023-02-09T12:10:14.604Z,102151.75
2023-02-09T12:12:44.495Z,102145.34
2023-02-09T12:15:20.025Z,102148.56
2023-02-09T12:17:48.728Z,102133.53
2023-02-09T12:20:24.263Z,102138.13
2023-02-09T12:22:53.590Z,102131.03
2023-02-09T12:25:22.777Z,102129.31
2023-02-09T12:28:12.084Z,102134.72
2023-02-09T12:30:58.249Z,102122.59
2023-02-09T12:33:31.580Z,102114.50
2023-02-09T12:35:59.835Z,102113.81
2023-02-09T12:38:29.238Z,102105.91
2023-02-09T12:41:03.239Z,102101.69
2023-02-09T12:43:32.081Z,102095.28
2023-02-09T12:46:19.985Z,102096.28
2023-02-09T12:48:53.263Z,102091.88
2023-02-09T12:51:38.797Z,102096.47
2023-02-09T12:54:22.035Z,102090.38
2023-02-09T12:56:49.705Z,102087.69
2023-02-09T12:59:18.508Z,102081.44
2023-02-09T13:02:04.600Z,102079.75
2023-02-09T13:04:36.349Z,102085.16
2023-02-09T13:07:04.785Z,102085.16
2023-02-09T13:09:33.660Z,102090.69
2023-02-09T13:12:03.861Z,102091.56
2023-02-09T13:14:31.529Z,102095.25
2023-02-09T13:17:19.606Z,102088.88
2023-02-09T13:19:57.755Z,102085.50
2023-02-09T13:22:28.944Z,102091.88
2023-02-09T13:24:58.039Z,102088.34
2023-02-09T13:27:25.887Z,102085.66
2023-02-09T13:29:54.892Z,102090.22
2023-02-09T13:32:25.612Z,102083.97
2023-02-09T13:34:54.608Z,102093.75
2023-02-09T13:37:25.253Z,102089.38
2023-02-09T13:39:58.343Z,102093.59
2023-02-09T13:42:26.757Z,102099.97
2023-02-09T13:44:54.744Z,102086.47
2023-02-09T13:47:23.122Z,102094.59
2023-02-09T13:49:57.346Z,102084.63
2023-02-09T13:52:27.514Z,102087.16
2023-02-09T13:54:55.191Z,102090.69
2023-02-09T13:57:29.883Z,102080.09
2023-02-09T13:59:57.880Z,102085.28
2023-02-09T14:02:27.150Z,102085.28
2023-02-09T14:05:02.660Z,102079.91
2023-02-09T14:07:34.785Z,102082.47
2023-02-09T14:10:05.468Z,102077.06
2023-02-09T14:12:52.880Z,102072.66
2023-02-09T14:15:41.451Z,102074.50
2023-02-09T14:18:31.450Z,102079.06
2023-02-09T14:21:02.016Z,102085.50
2023-02-09T14:23:35.251Z,102075.69
2023-02-09T14:26:05.331Z,102081.91
2023-02-09T14:28:34.268Z,102082.78
2023-02-09T14:31:03.398Z,102079.91
2023-02-09T14:33:32.131Z,102073.66
2023-02-09T14:36:01.948Z,102079.22
2023-02-09T14:38:38.606Z,102075.53
2023-02-09T14:41:19.983Z,102078.38
2023-02-09T14:43:57.339Z,102076.50
2023-02-09T14:46:25.830Z,102074.00
2023-02-09T14:48:56.724Z,102071.47
2023-02-09T14:51:25.050Z,102078.06
2023-02-09T14:53:54.050Z,102080.06
2023-02-09T14:56:25.298Z,102077.38
2023-02-09T14:58:52.921Z,102067.59
2023-02-09T15:01:20.642Z,102060.53
2023-02-09T15:03:49.094Z,102070.31
2023-02-09T15:06:17.544Z,102062.19
2023-02-09T15:08:45.312Z,102069.63
2023-02-09T15:11:34.560Z,102063.38
2023-02-09T15:14:03.909Z,102057.16
2023-02-09T15:16:32.416Z,102052.75
2023-02-09T15:19:00.108Z,102056.47
2023-02-09T15:21:28.600Z,102067.47
2023-02-09T15:23:56.274Z,102067.63
2023-02-09T15:26:26.887Z,102070.69
2023-02-09T15:28:55.402Z,102072.69
2023-02-09T15:31:23.062Z,102073.72
2023-02-09T15:33:51.471Z,102078.09
2023-02-09T15:36:19.537Z,102067.47
2023-02-09T15:38:48.074Z,102074.72
2023-02-09T15:41:36.354Z,102068.47
2023-02-09T15:44:24.166Z,102074.72
2023-02-09T15:47:09.340Z,102065.94
2023-02-09T15:49:38.643Z,102071.34
2023-02-09T15:52:06.524Z,102068.00
2023-02-09T15:54:34.286Z,102075.41
2023-02-09T15:57:03.581Z,102079.16
2023-02-09T15:59:32.828Z,102075.75
2023-02-09T16:02:01.270Z,102086.56
2023-02-09T16:04:31.482Z,102081.31
2023-02-09T16:06:59.264Z,102081.50
2023-02-09T16:09:28.501Z,102082.50
2023-02-09T16:11:56.434Z,102082.50
2023-02-09T16:14:26.591Z,102070.38
2023-02-09T16:16:55.897Z,102072.41
2023-02-09T16:19:24.575Z,102091.63
2023-02-09T16:21:53.061Z,102086.38
2023-02-09T16:24:23.553Z,102088.25
2023-02-09T16:26:51.296Z,102096.34
2023-02-09T16:29:19.026Z,102083.88
2023-02-09T16:31:47.636Z,102090.25
2023-02-09T16:34:16.814Z,102082.84
2023-02-09T16:36:45.068Z,102075.59
2023-02-09T16:39:17.190Z,102080.00
2023-02-09T16:41:51.627Z,102078.28
2023-02-09T16:44:21.770Z,102083.69
2023-02-09T16:46:50.457Z,102082.84
2023-02-09T16:49:34.875Z,102088.25
2023-02-09T16:52:03.407Z,102088.41
2023-02-09T16:54:31.463Z,102085.53
2023-02-09T16:57:03.789Z,102091.97
2023-02-09T16:59:32.292Z,102089.28
2023-02-09T17:02:02.206Z,102098.38
2023-02-09T17:04:32.959Z,102091.28
2023-02-09T17:07:01.863Z,102090.44
2023-02-09T17:09:30.900Z,102097.03
2023-02-09T17:11:58.615Z,102084.22
2023-02-09T17:14:27.733Z,102091.63
2023-02-09T17:16:56.549Z,102096.00
2023-02-09T17:19:24.205Z,102097.88
2023-02-09T17:21:54.651Z,102091.44
2023-02-09T17:24:22.314Z,102090.44
2023-02-09T17:26:50.816Z,102088.59
2023-02-09T17:29:21.341Z,102088.59
2023-02-09T17:31:53.518Z,102094.00
2023-02-09T17:34:27.814Z,102094.00
2023-02-09T17:36:57.034Z,102103.75
2023-02-09T17:39:24.688Z,102090.25
2023-02-09T17:41:54.725Z,102090.94
2023-02-09T17:44:35.362Z,102085.53
2023-02-09T17:47:12.728Z,102095.16
2023-02-09T17:49:40.492Z,102096.00
2023-02-09T17:52:19.000Z,102092.31
2023-02-09T17:54:47.714Z,102087.75
2023-02-09T17:57:15.412Z,102098.53
2023-02-09T17:59:45.306Z,102095.66
2023-02-09T18:02:14.658Z,102086.56
2023-02-09T18:04:44.309Z,102090.94
2023-02-09T18:07:14.541Z,102091.63
2023-02-09T18:09:42.235Z,102091.63
2023-02-09T18:12:12.693Z,102091.63
2023-02-09T18:14:40.441Z,102092.44
2023-02-09T18:17:09.063Z,102091.63
2023-02-09T18:19:36.718Z,102095.97
2023-02-09T18:22:10.787Z,102093.28
2023-02-09T18:24:39.824Z,102101.22
2023-02-09T18:27:08.762Z,102090.25
2023-02-09T18:29:37.823Z,102094.66
2023-02-09T18:32:05.657Z,102093.63
2023-02-09T18:34:35.775Z,102089.25
2023-02-09T18:37:03.506Z,102101.91
2023-02-09T18:39:32.620Z,102102.75
2023-02-09T18:42:01.694Z,102097.34
2023-02-09T18:44:33.816Z,102102.75
2023-02-09T18:47:02.052Z,102110.84
2023-02-09T18:49:32.474Z,102110.84
2023-02-09T18:52:01.658Z,102110.00
2023-02-09T18:54:32.037Z,102114.38
2023-02-09T18:57:02.977Z,102117.91
2023-02-09T18:59:33.033Z,102129.56
2023-02-09T19:02:00.868Z,102121.63
2023-02-09T19:04:31.787Z,102127.03
2023-02-09T19:07:01.801Z,102127.88
2023-02-09T19:09:29.661Z,102127.03
2023-02-09T19:11:58.823Z,102134.13
2023-02-09T19:14:40.096Z,102135.81
2023-02-09T19:17:09.942Z,102142.06
2023-02-09T19:19:38.772Z,102143.72
2023-02-09T19:22:06.486Z,102132.94
2023-02-09T19:24:35.202Z,102138.19
2023-02-09T19:27:03.621Z,102133.63
2023-02-09T19:29:32.781Z,102132.59
2023-02-09T19:32:02.805Z,102134.44
2023-02-09T19:34:31.270Z,102121.78
2023-02-09T19:37:00.209Z,102126.00
2023-02-09T19:39:28.029Z,102119.59
2023-02-09T19:41:56.595Z,102128.34
2023-02-09T19:44:24.252Z,102126.53
2023-02-09T19:46:53.366Z,102129.22
2023-02-09T19:49:22.211Z,102123.81
2023-02-09T19:51:49.826Z,102125.50
2023-02-09T19:54:18.478Z,102125.84
2023-02-09T19:56:46.254Z,102127.19
2023-02-09T19:59:14.080Z,102132.41
2023-02-09T20:01:42.651Z,102140.50
2023-02-09T20:04:15.985Z,102124.28
2023-02-09T20:06:44.499Z,102128.03
2023-02-09T20:09:12.432Z,102120.06
2023-02-09T20:11:41.182Z,102123.81
2023-02-09T20:14:08.890Z,102120.44
2023-02-09T20:16:37.512Z,102111.66
2023-02-09T20:19:05.459Z,102119.94
2023-02-09T20:21:35.546Z,102120.94
2023-02-09T20:24:07.793Z,102115.72
2023-02-09T20:26:36.363Z,102113.19
2023-02-09T20:29:05.360Z,102106.09
2023-02-09T20:31:34.894Z,102103.56
2023-02-09T20:34:06.958Z,102105.59
2023-02-09T20:36:36.631Z,102105.94
2023-02-09T20:39:05.421Z,102115.22
2023-02-09T20:41:33.160Z,102104.59
2023-02-09T20:44:19.848Z,102102.06
2023-02-09T20:46:59.405Z,102100.38
2023-02-09T20:49:32.128Z,102101.22
2023-02-09T20:52:01.733Z,102095.00
2023-02-09T20:54:33.870Z,102093.28
2023-02-09T20:57:01.580Z,102089.59
2023-02-09T20:59:31.911Z,102094.16
2023-02-09T21:01:59.654Z,102099.56
2023-02-09T21:04:32.120Z,102093.28
2023-02-09T21:07:04.166Z,102089.75
2023-02-09T21:09:32.689Z,102089.94
2023-02-09T21:12:00.426Z,102092.63
2023-02-09T21:14:41.123Z,102098.03
2023-02-09T21:17:09.194Z,102099.03
2023-02-09T21:19:37.892Z,102087.41
2023-02-09T21:22:07.048Z,102092.94
2023-02-09T21:24:34.701Z,102092.94
2023-02-09T21:27:03.921Z,102085.03
2023-02-09T21:29:31.574Z,102091.44
2023-02-09T21:32:03.952Z,102097.72
2023-02-09T21:34:31.769Z,102094.31
2023-02-09T21:36:59.518Z,102086.22
2023-02-09T21:39:29.529Z,102088.09
2023-02-09T21:42:14.690Z,102088.25
2023-02-09T21:44:43.347Z,102090.13
2023-02-09T21:47:11.526Z,102086.56
2023-02-09T21:49:39.215Z,102085.91
2023-02-09T21:52:08.269Z,102085.91
2023-02-09T21:54:37.338Z,102096.69
2023-02-09T21:57:05.109Z,102096.84
2023-02-09T21:59:33.609Z,102089.94
2023-02-09T22:02:01.382Z,102093.66
2023-02-09T22:04:30.483Z,102099.22
2023-02-09T22:06:59.277Z,102094.00
2023-02-09T22:11:56.913Z,102105.13
2023-02-09T22:14:24.512Z,102110.53
2023-02-09T22:16:53.042Z,102110.53
2023-02-09T22:19:20.670Z,102107.16
2023-02-09T22:21:49.215Z,102102.59
2023-02-09T22:24:16.914Z,102101.91
2023-02-09T22:26:45.804Z,102098.38
2023-02-09T22:29:15.136Z,102106.66
2023-02-09T22:31:43.606Z,102105.13
2023-02-09T22:34:11.296Z,102107.84
2023-02-09T22:36:39.819Z,102101.56
2023-02-09T22:39:08.506Z,102101.75
2023-02-09T22:41:36.201Z,102092.97
2023-02-09T22:44:05.197Z,102091.31
2023-02-09T22:46:34.794Z,102098.53
2023-02-09T22:49:03.173Z,102088.75
2023-02-09T22:51:31.890Z,102086.06
2023-02-09T22:53:59.744Z,102085.03
2023-02-09T22:56:28.242Z,102083.38
2023-02-09T22:58:55.948Z,102085.22
2023-02-09T23:01:24.955Z,102078.13
2023-02-09T23:03:54.108Z,102077.28
2023-02-09T23:06:24.070Z,102075.44
2023-02-09T23:08:53.700Z,102062.13
2023-02-09T23:11:21.498Z,102064.00
2023-02-09T23:13:52.875Z,102062.28
2023-02-09T23:16:23.711Z,102063.31
2023-02-09T23:18:51.865Z,102058.91
2023-02-09T23:21:21.129Z,102056.22
2023-02-09T23:23:48.837Z,102056.38
2023-02-09T23:26:16.628Z,102059.22
2023-02-09T23:28:44.590Z,102056.72
2023-02-09T23:31:13.095Z,102052.31
2023-02-09T23:33:40.857Z,102052.50
2023-02-09T23:36:09.227Z,102055.34
2023-02-09T23:38:38.390Z,102044.56
2023-02-09T23:41:06.674Z,102049.25
2023-02-09T23:43:34.516Z,102047.44
2023-02-09T23:46:02.477Z,102054.84
2023-02-09T23:48:30.282Z,102049.44
2023-02-09T23:51:00.989Z,102051.47
2023-02-09T23:53:28.667Z,102059.56
2023-02-09T23:56:03.773Z,102055.19
2023-02-09T23:58:31.915Z,102048.97
